createdAt,value
2018-11-20T00:00:35.363Z,42.78
2018-11-20T00:03:13.546Z,43.10
2018-11-20T00:05:58.374Z,42.86
2018-11-20T00:08:35.176Z,42.85
2018-11-20T00:11:27.809Z,43.17
2018-11-20T00:14:32.284Z,42.47
2018-11-20T00:17:21.477Z,42.59
2018-11-20T00:20:07.879Z,42.85
2018-11-20T00:22:56.196Z,42.65
2018-11-20T00:25:42.630Z,42.42
2018-11-20T00:28:39.890Z,42.44
2018-11-20T00:31:29.298Z,42.80
2018-11-20T00:34:34.234Z,43.06
2018-11-20T00:37:26.824Z,43.37
2018-11-20T00:40:11.800Z,42.29
2018-11-20T00:43:02.639Z,42.83
2018-11-20T00:45:52.955Z,42.73
2018-11-20T00:48:48.117Z,42.48
2018-11-20T00:51:34.841Z,42.62
2018-11-20T00:54:18.590Z,42.70
2018-11-20T00:57:03.956Z,42.39
2018-11-20T00:59:51.421Z,42.93
2018-11-20T01:02:39.473Z,42.51
2018-11-20T01:05:27.146Z,42.72
2018-11-20T01:08:15.958Z,42.24
2018-11-20T01:11:08.080Z,42.14
2018-11-20T01:13:56.211Z,42.42
2018-11-20T01:16:38.703Z,42.07
2018-11-20T01:19:28.318Z,42.39
2018-11-20T01:22:23.795Z,43.10
2018-11-20T01:25:08.575Z,42.14
2018-11-20T01:27:49.262Z,42.53
2018-11-20T01:30:35.959Z,42.26
2018-11-20T01:33:33.915Z,41.97
2018-11-20T01:36:38.431Z,42.21
2018-11-20T01:39:27.015Z,42.15
2018-11-20T01:42:11.954Z,42.87
2018-11-20T01:44:55.362Z,42.29
2018-11-20T01:47:50.359Z,41.94
2018-11-20T01:50:39.701Z,42.24
2018-11-20T01:53:41.327Z,42.10
2018-11-20T01:56:26.236Z,42.22
2018-11-20T01:59:25.515Z,42.05
2018-11-20T02:02:32.879Z,43.08
2018-11-20T02:05:18.113Z,42.18
2018-11-20T02:08:22.736Z,42.16
2018-11-20T02:11:16.127Z,42.46
2018-11-20T02:14:08.776Z,42.76
2018-11-20T02:16:55.347Z,42.09
2018-11-20T02:19:47.313Z,42.01
2018-11-20T02:22:28.796Z,42.21
2018-11-20T02:25:05.756Z,42.61
2018-11-20T02:27:54.781Z,42.22
2018-11-20T02:30:39.611Z,41.89
2018-11-20T02:33:33.487Z,42.57
2018-11-20T02:36:22.728Z,42.21
2018-11-20T02:39:17.985Z,42.23
2018-11-20T02:42:16.936Z,42.31
2018-11-20T02:45:12.371Z,42.81
2018-11-20T02:48:00.436Z,42.42
2018-11-20T02:50:48.407Z,42.31
2018-11-20T02:53:37.597Z,41.93
2018-11-20T02:56:29.914Z,42.43
2018-11-20T02:59:19.110Z,42.12
2018-11-20T03:02:04.409Z,42.25
2018-11-20T03:04:48.016Z,42.56
2018-11-20T03:07:32.912Z,42.08
2018-11-20T03:10:21.168Z,42.06
2018-11-20T03:13:31.668Z,42.25
2018-11-20T03:16:19.644Z,42.08
2018-11-20T03:19:14.526Z,42.08
2018-11-20T03:21:54.058Z,42.14
2018-11-20T03:24:52.509Z,42.24
2018-11-20T03:27:37.418Z,42.79
2018-11-20T03:30:47.268Z,42.40
2018-11-20T03:33:38.220Z,42.13
2018-11-20T03:36:29.787Z,41.98
2018-11-20T03:39:27.968Z,42.09
2018-11-20T03:42:15.803Z,42.10
2018-11-20T03:45:10.899Z,42.31
2018-11-20T03:47:59.113Z,42.55
2018-11-20T03:50:52.121Z,42.74
2018-11-20T03:53:41.599Z,42.32
2018-11-20T03:56:30.842Z,42.27
2018-11-20T03:59:16.424Z,42.42
2018-11-20T04:01:57.004Z,42.47
2018-11-20T04:04:40.802Z,42.18
2018-11-20T04:07:24.642Z,43.29
2018-11-20T04:10:17.938Z,42.79
2018-11-20T04:13:03.145Z,42.48
2018-11-20T04:15:59.852Z,42.67
2018-11-20T04:19:07.095Z,42.59
2018-11-20T04:21:51.945Z,42.65
2018-11-20T04:24:56.836Z,42.10
2018-11-20T04:27:44.424Z,41.97
2018-11-20T04:30:38.887Z,41.88
2018-11-20T04:33:45.599Z,42.16
2018-11-20T04:36:41.249Z,42.29
2018-11-20T04:39:37.034Z,42.25
2018-11-20T04:42:31.115Z,42.27
2018-11-20T04:45:29.429Z,42.07
2018-11-20T04:48:07.348Z,42.39
2018-11-20T04:50:56.574Z,42.18
2018-11-20T04:53:57.910Z,42.71
2018-11-20T04:56:36.072Z,42.29
2018-11-20T04:59:22.153Z,42.26
2018-11-20T05:02:20.196Z,42.11
2018-11-20T05:05:08.057Z,42.52
2018-11-20T05:08:00.263Z,42.55
2018-11-20T05:10:58.339Z,42.70
2018-11-20T05:13:43.280Z,42.07
2018-11-20T05:16:45.707Z,42.49
2018-11-20T05:19:49.688Z,42.40
2018-11-20T05:22:37.717Z,42.31
2018-11-20T05:25:18.823Z,42.60
2018-11-20T05:28:04.164Z,42.48
2018-11-20T05:30:53.245Z,42.44
2018-11-20T05:33:51.552Z,42.39
2018-11-20T05:36:36.680Z,42.16
2018-11-20T05:39:42.835Z,42.57
2018-11-20T05:42:28.427Z,42.68
2018-11-20T05:45:23.951Z,42.00
2018-11-20T05:48:25.458Z,42.03
2018-11-20T05:51:11.855Z,42.52
2018-11-20T05:53:58.416Z,43.39
2018-11-20T05:56:57.026Z,42.78
2018-11-20T06:00:01.547Z,42.26
2018-11-20T06:03:00.162Z,42.79
2018-11-20T06:05:37.769Z,42.42
2018-11-20T06:08:22.811Z,42.77
2018-11-20T06:11:21.285Z,42.31
2018-11-20T06:14:06.561Z,42.36
2018-11-20T06:16:58.440Z,42.20
2018-11-20T06:19:47.493Z,42.32
2018-11-20T06:22:39.508Z,42.36
2018-11-20T06:25:23.129Z,42.18
2018-11-20T06:28:18.761Z,42.61
2018-11-20T06:31:06.710Z,42.14
2018-11-20T06:34:10.988Z,41.93
2018-11-20T06:36:47.296Z,42.65
2018-11-20T06:39:39.497Z,42.54
2018-11-20T06:42:24.336Z,42.54
2018-11-20T06:45:09.381Z,43.48
2018-11-20T06:47:54.140Z,42.67
2018-11-20T06:50:39.721Z,42.36
2018-11-20T06:53:24.594Z,42.53
2018-11-20T06:56:25.745Z,42.78
2018-11-20T06:59:27.031Z,42.25
2018-11-20T07:02:11.991Z,42.47
2018-11-20T07:04:56.973Z,42.29
2018-11-20T07:07:35.301Z,42.47
2018-11-20T07:10:20.206Z,42.64
2018-11-20T07:13:19.160Z,42.24
2018-11-20T07:16:10.378Z,42.49
2018-11-20T07:19:11.764Z,42.46
2018-11-20T07:21:57.031Z,42.36
2018-11-20T07:24:45.487Z,42.43
2018-11-20T07:27:34.847Z,43.02
2018-11-20T07:30:26.874Z,42.66
2018-11-20T07:33:34.129Z,42.80
2018-11-20T07:36:22.031Z,42.76
2018-11-20T07:39:09.797Z,43.19
2018-11-20T07:41:47.790Z,42.72
2018-11-20T07:44:32.801Z,43.23
2018-11-20T07:47:18.155Z,42.49
2018-11-20T07:50:10.183Z,42.64
2018-11-20T07:53:05.269Z,42.86
2018-11-20T07:55:57.385Z,42.44
2018-11-20T07:58:44.237Z,42.57
2018-11-20T08:01:51.952Z,42.70
2018-11-20T08:04:39.609Z,43.08
2018-11-20T08:07:24.531Z,42.49
2018-11-20T08:10:19.868Z,42.69
2018-11-20T08:13:11.837Z,42.98
2018-11-20T08:16:16.752Z,42.80
2018-11-20T08:18:59.494Z,42.82
2018-11-20T08:21:48.270Z,42.96
2018-11-20T08:24:46.489Z,42.47
2018-11-20T08:27:48.056Z,42.88
2018-11-20T08:30:36.965Z,42.91
2018-11-20T08:33:41.343Z,42.88
2018-11-20T08:36:19.221Z,43.21
2018-11-20T08:39:19.204Z,42.55
2018-11-20T08:42:26.324Z,42.71
2018-11-20T08:45:14.517Z,43.19
2018-11-20T08:48:07.237Z,43.05
2018-11-20T08:50:54.668Z,42.72
2018-11-20T08:53:47.228Z,43.04
2018-11-20T08:56:32.821Z,42.96
2018-11-20T08:59:05.961Z,43.12
2018-11-20T09:01:58.499Z,42.83
2018-11-20T09:04:56.650Z,42.82
2018-11-20T09:07:44.617Z,42.70
2018-11-20T09:10:43.316Z,43.18
2018-11-20T09:13:36.294Z,43.00
2018-11-20T09:16:25.541Z,43.37
2018-11-20T09:19:10.771Z,42.67
2018-11-20T09:21:58.672Z,43.29
2018-11-20T09:24:54.420Z,42.75
2018-11-20T09:27:40.867Z,43.15
2018-11-20T09:30:26.059Z,43.13
2018-11-20T09:33:12.899Z,43.06
2018-11-20T09:36:01.408Z,43.37
2018-11-20T09:38:52.337Z,43.12
2018-11-20T09:41:41.548Z,43.16
2018-11-20T09:44:47.297Z,43.39
2018-11-20T09:47:33.690Z,42.97
2018-11-20T09:50:18.998Z,43.26
2018-11-20T09:53:17.208Z,43.23
2018-11-20T09:56:18.769Z,42.85
2018-11-20T09:59:23.707Z,43.16
2018-11-20T10:02:08.356Z,42.86
2018-11-20T10:04:57.683Z,43.29
2018-11-20T10:07:47.031Z,42.78
2018-11-20T10:10:32.645Z,42.93
2018-11-20T10:13:17.901Z,43.50
2018-11-20T10:16:13.607Z,42.79
2018-11-20T10:19:09.480Z,42.72
2018-11-20T10:21:56.114Z,42.79
2018-11-20T10:24:41.334Z,42.85
2018-11-20T10:27:30.414Z,42.85
2018-11-20T10:30:14.388Z,42.79
2018-11-20T10:33:10.073Z,42.75
2018-11-20T10:35:55.068Z,43.44
2018-11-20T10:38:50.224Z,42.72
2018-11-20T10:41:42.333Z,42.73
2018-11-20T10:44:27.631Z,42.59
2018-11-20T10:47:28.482Z,42.47
2018-11-20T10:50:13.299Z,42.36
2018-11-20T10:53:11.549Z,42.67
2018-11-20T10:55:56.951Z,42.49
2018-11-20T10:58:46.397Z,42.59
2018-11-20T11:01:34.066Z,43.09
2018-11-20T11:04:26.463Z,42.42
2018-11-20T11:07:16.584Z,42.44
2018-11-20T11:09:53.175Z,42.47
2018-11-20T11:12:45.527Z,42.44
2018-11-20T11:15:40.761Z,42.78
2018-11-20T11:18:29.970Z,42.51
2018-11-20T11:21:28.599Z,42.44
2018-11-20T11:24:16.865Z,42.66
2018-11-20T11:27:07.884Z,42.64
2018-11-20T11:30:03.436Z,42.68
2018-11-20T11:32:52.088Z,42.81
2018-11-20T11:35:44.069Z,42.90
2018-11-20T11:38:26.451Z,42.57
2018-11-20T11:41:17.109Z,42.14
2018-11-20T11:44:05.113Z,42.65
2018-11-20T11:46:50.184Z,42.66
2018-11-20T11:49:35.112Z,42.66
2018-11-20T11:52:27.375Z,42.60
2018-11-20T11:55:16.791Z,42.29
2018-11-20T11:57:57.321Z,42.33
2018-11-20T12:00:42.626Z,42.39
2018-11-20T12:03:31.535Z,42.16
2018-11-20T12:06:18.073Z,42.06
2018-11-20T12:09:04.533Z,42.37
2018-11-20T12:11:51.027Z,42.39
2018-11-20T12:14:52.774Z,42.34
2018-11-20T12:17:37.921Z,42.39
2018-11-20T12:20:23.685Z,42.14
2018-11-20T12:23:12.830Z,42.25
2018-11-20T12:26:11.359Z,42.09
2018-11-20T12:28:57.927Z,42.28
2018-11-20T12:31:54.686Z,42.55
2018-11-20T12:34:43.646Z,42.06
2018-11-20T12:37:24.570Z,42.18
2018-11-20T12:40:09.273Z,42.44
2018-11-20T12:42:44.122Z,42.00
2018-11-20T12:45:34.348Z,42.00
2018-11-20T12:48:31.900Z,42.73
2018-11-20T12:51:17.171Z,42.41
2018-11-20T12:54:02.019Z,42.50
2018-11-20T12:56:53.910Z,42.06
2018-11-20T12:59:45.151Z,42.54
2018-11-20T13:02:34.331Z,42.45
2018-11-20T13:05:19.440Z,42.21
2018-11-20T13:07:58.070Z,42.41
2018-11-20T13:10:51.698Z,42.48
2018-11-20T13:13:28.838Z,42.85
2018-11-20T13:16:08.906Z,42.18
2018-11-20T13:19:00.926Z,42.27
2018-11-20T13:21:46.060Z,42.31
2018-11-20T13:24:32.657Z,42.35
2018-11-20T13:27:18.041Z,42.37
2018-11-20T13:30:07.399Z,42.42
2018-11-20T13:32:48.144Z,42.40
2018-11-20T13:35:33.495Z,42.70
2018-11-20T13:38:18.532Z,42.91
2018-11-20T13:41:29.095Z,42.42
2018-11-20T13:44:13.900Z,42.18
2018-11-20T13:47:01.143Z,42.75
2018-11-20T13:50:00.214Z,42.40
2018-11-20T13:52:43.881Z,42.34
2018-11-20T13:55:27.092Z,42.31
2018-11-20T13:58:10.171Z,42.34
2018-11-20T14:00:55.235Z,42.15
2018-11-20T14:03:47.377Z,42.49
2018-11-20T14:06:36.211Z,41.68
2018-11-20T14:09:18.251Z,41.85
2018-11-20T14:12:17.900Z,41.93
2018-11-20T14:15:19.382Z,42.11
2018-11-20T14:18:22.917Z,41.78
2018-11-20T14:21:08.256Z,41.85
2018-11-20T14:23:52.986Z,41.72
2018-11-20T14:26:37.827Z,41.77
2018-11-20T14:29:30.445Z,41.83
2018-11-20T14:32:10.462Z,41.80
2018-11-20T14:35:11.926Z,41.95
2018-11-20T14:37:57.217Z,41.97
2018-11-20T14:41:01.038Z,42.08
2018-11-20T14:43:51.147Z,41.70
2018-11-20T14:46:36.350Z,41.99
2018-11-20T14:49:40.796Z,41.52
2018-11-20T14:52:16.927Z,41.45
2018-11-20T14:55:24.737Z,41.97
2018-11-20T14:58:12.988Z,41.63
2018-11-20T15:01:08.552Z,41.32
2018-11-20T15:03:53.935Z,41.88
2018-11-20T15:06:39.383Z,41.66
2018-11-20T15:09:45.764Z,41.64
2018-11-20T15:12:32.148Z,41.90
2018-11-20T15:15:19.498Z,41.16
2018-11-20T15:18:12.160Z,41.54
2018-11-20T15:21:01.088Z,41.82
2018-11-20T15:23:46.164Z,42.53
2018-11-20T15:26:31.329Z,41.75
2018-11-20T15:29:26.564Z,41.64
2018-11-20T15:32:34.176Z,41.76
2018-11-20T15:35:25.139Z,41.63
2018-11-20T15:38:20.598Z,41.44
2018-11-20T15:41:08.711Z,41.35
2018-11-20T15:43:56.999Z,41.22
2018-11-20T15:46:42.021Z,40.98
2018-11-20T15:49:23.617Z,41.49
2018-11-20T15:52:04.792Z,41.11
2018-11-20T15:55:34.025Z,41.29
2018-11-20T15:58:34.981Z,42.24
2018-11-20T16:01:33.207Z,41.40
2018-11-20T16:04:28.326Z,41.46
2018-11-20T16:07:26.160Z,41.23
2018-11-20T16:10:15.433Z,41.49
2018-11-20T16:12:51.644Z,41.35
2018-11-20T16:15:43.270Z,41.59
2018-11-20T16:18:50.256Z,41.29
2018-11-20T16:21:36.478Z,41.50
2018-11-20T16:24:34.384Z,41.36
2018-11-20T16:27:18.241Z,41.49
2018-11-20T16:30:10.122Z,40.76
2018-11-20T16:32:55.031Z,41.39
2018-11-20T16:35:37.157Z,41.18
2018-11-20T16:38:40.753Z,42.20
2018-11-20T16:41:18.174Z,41.40
2018-11-20T16:44:02.653Z,41.35
2018-11-20T16:46:51.517Z,40.83
2018-11-20T16:49:36.463Z,40.90
2018-11-20T16:52:37.852Z,41.36
2018-11-20T16:55:32.678Z,41.26
2018-11-20T16:58:17.459Z,41.47
2018-11-20T17:00:52.572Z,41.23
2018-11-20T17:03:57.001Z,41.03
2018-11-20T17:06:52.757Z,41.76
2018-11-20T17:09:40.012Z,41.30
2018-11-20T17:12:28.602Z,41.25
2018-11-20T17:15:08.408Z,41.11
2018-11-20T17:17:54.420Z,41.06
2018-11-20T17:21:04.075Z,40.85
2018-11-20T17:23:52.655Z,41.16
2018-11-20T17:26:39.169Z,41.46
2018-11-20T17:29:24.028Z,41.23
2018-11-20T17:32:19.133Z,41.02
2018-11-20T17:35:13.863Z,40.90
2018-11-20T17:38:03.597Z,41.26
2018-11-20T17:40:58.020Z,40.94
2018-11-20T17:44:01.664Z,41.30
2018-11-20T17:46:46.474Z,41.02
2018-11-20T17:49:31.418Z,41.34
2018-11-20T17:52:16.047Z,41.45
2018-11-20T17:55:06.627Z,41.22
2018-11-20T17:57:49.642Z,41.46
2018-11-20T18:00:34.675Z,41.21
2018-11-20T18:03:19.566Z,41.08
2018-11-20T18:06:17.388Z,41.18
2018-11-20T18:09:00.263Z,41.27
2018-11-20T18:11:46.961Z,41.08
2018-11-20T18:14:31.777Z,41.02
2018-11-20T18:17:20.755Z,41.14
2018-11-20T18:20:09.392Z,41.11
2018-11-20T18:22:54.642Z,41.69
2018-11-20T18:25:32.267Z,41.30
2018-11-20T18:28:13.338Z,41.22
2018-11-20T18:31:01.648Z,41.00
2018-11-20T18:33:50.660Z,40.95
2018-11-20T18:36:36.254Z,41.08
2018-11-20T18:39:27.930Z,41.03
2018-11-20T18:42:12.770Z,40.75
2018-11-20T18:45:00.264Z,41.02
2018-11-20T18:47:45.278Z,41.03
2018-11-20T18:50:30.189Z,41.08
2018-11-20T18:53:34.367Z,41.07
2018-11-20T18:56:23.254Z,41.13
2018-11-20T18:59:02.594Z,41.13
2018-11-20T19:01:51.612Z,40.68
2018-11-20T19:04:38.928Z,41.22
2018-11-20T19:07:37.018Z,40.95
2018-11-20T19:10:22.533Z,41.19
2018-11-20T19:13:07.500Z,41.18
2018-11-20T19:15:52.194Z,41.26
2018-11-20T19:18:40.843Z,41.05
2018-11-20T19:21:25.973Z,41.33
2018-11-20T19:24:10.851Z,40.97
2018-11-20T19:27:08.457Z,41.16
2018-11-20T19:30:09.736Z,41.21
2018-11-20T19:32:54.754Z,41.35
2018-11-20T19:35:52.022Z,41.65
2018-11-20T19:38:56.191Z,41.98
2018-11-20T19:41:41.594Z,41.57
2018-11-20T19:44:39.481Z,41.65
2018-11-20T19:47:24.426Z,41.44
2018-11-20T19:50:11.740Z,41.27
2018-11-20T19:52:54.326Z,41.65
2018-11-20T19:55:40.935Z,41.53
2018-11-20T19:58:27.084Z,41.54
2018-11-20T20:01:12.070Z,41.48
2018-11-20T20:03:45.925Z,41.19
2018-11-20T20:06:40.780Z,41.64
2018-11-20T20:09:32.664Z,41.41
2018-11-20T20:12:17.443Z,41.35
2018-11-20T20:15:21.873Z,41.57
2018-11-20T20:17:58.134Z,41.71
2018-11-20T20:20:42.907Z,42.26
2018-11-20T20:23:44.181Z,41.46
2018-11-20T20:26:45.859Z,41.60
2018-11-20T20:29:31.885Z,41.66
2018-11-20T20:32:16.554Z,41.52
2018-11-20T20:35:01.289Z,41.20
2018-11-20T20:37:50.137Z,41.01
2018-11-20T20:40:38.974Z,41.51
2018-11-20T20:43:23.563Z,41.19
2018-11-20T20:46:21.760Z,41.29
2018-11-20T20:49:07.785Z,41.33
2018-11-20T20:51:52.592Z,41.41
2018-11-20T20:54:41.788Z,41.42
2018-11-20T20:57:22.417Z,41.64
2018-11-20T21:00:23.707Z,41.30
2018-11-20T21:03:12.616Z,41.49
2018-11-20T21:05:57.293Z,41.58
2018-11-20T21:08:45.222Z,41.70
2018-11-20T21:11:38.079Z,41.70
2018-11-20T21:14:29.717Z,41.38
2018-11-20T21:17:34.120Z,41.27
2018-11-20T21:20:19.959Z,41.32
2018-11-20T21:23:06.093Z,41.46
2018-11-20T21:25:57.718Z,41.57
2018-11-20T21:36:34.054Z,41.63
2018-11-20T21:39:18.171Z,41.88
2018-11-20T21:42:05.500Z,41.71
2018-11-20T21:44:50.141Z,42.15
2018-11-20T21:47:34.664Z,41.72
2018-11-20T21:53:36.983Z,41.88
2018-11-20T21:56:47.462Z,41.77
2018-11-20T21:59:37.609Z,42.04
2018-11-20T22:02:26.971Z,41.70
2018-11-20T22:05:16.435Z,42.27
2018-11-20T22:08:05.419Z,41.84
2018-11-20T22:10:50.183Z,42.11
2018-11-20T22:13:55.566Z,41.70
2018-11-20T22:17:12.322Z,41.80
2018-11-20T22:19:57.114Z,41.67
2018-11-20T22:23:20.786Z,41.76
2018-11-20T22:26:00.641Z,41.83
2018-11-20T22:28:47.965Z,41.64
2018-11-20T22:31:35.324Z,42.13
2018-11-20T22:34:20.454Z,41.69
2018-11-20T22:37:10.301Z,42.13
2018-11-20T22:39:45.986Z,41.93
2018-11-20T22:42:40.749Z,42.00
2018-11-20T22:45:41.520Z,41.80
2018-11-20T22:48:36.707Z,41.69
2018-11-20T22:51:34.531Z,41.65
2018-11-20T22:54:19.060Z,42.29
2018-11-20T22:57:08.050Z,42.20
2018-11-20T23:00:09.104Z,41.57
2018-11-20T23:02:53.577Z,41.45
2018-11-20T23:05:37.969Z,41.77
2018-11-20T23:08:04.382Z,41.90
2018-11-20T23:10:30.871Z,42.07
2018-11-20T23:12:57.352Z,42.04
2018-11-20T23:15:27.814Z,42.27
2018-11-20T23:17:54.259Z,42.18
2018-11-20T23:20:20.808Z,41.83
2018-11-20T23:22:47.273Z,41.84
2018-11-20T23:25:14.521Z,41.78
2018-11-20T23:27:44.142Z,41.79
2018-11-20T23:30:12.850Z,42.01
2018-11-20T23:32:39.683Z,41.60
2018-11-20T23:35:11.768Z,42.13
2018-11-20T23:37:41.908Z,41.72
2018-11-20T23:40:09.489Z,42.08
2018-11-20T23:42:39.977Z,42.64
2018-11-20T23:45:07.586Z,42.43
2018-11-20T23:47:35.044Z,41.70
2018-11-20T23:50:05.441Z,41.71
2018-11-20T23:52:35.545Z,42.17
2018-11-20T23:55:06.185Z,42.24
2018-11-20T23:57:35.401Z,42.35
